sensor_id;sensor_type;location;lat;lon;timestamp;P1;durP1;ratioP1;P2;durP2;ratioP2
57800;SDS011;43627;42.728;23.256;2022-08-25T00:01:56;35.15;;;10.73;;
57800;SDS011;43627;42.728;23.256;2022-08-25T00:04:28;25.10;;;10.43;;
57800;SDS011;43627;42.728;23.256;2022-08-25T00:06:55;22.02;;;10.35;;
57800;SDS011;43627;42.728;23.256;2022-08-25T00:09:28;22.02;;;10.77;;
57800;SDS011;43627;42.728;23.256;2022-08-25T00:11:56;25.55;;;11.02;;
57800;SDS011;43627;42.728;23.256;2022-08-25T00:14:25;29.35;;;11.02;;
57800;SDS011;43627;42.728;23.256;2022-08-25T00:16:54;32.03;;;10.65;;
57800;SDS011;43627;42.728;23.256;2022-08-25T00:19:23;25.30;;;10.57;;
57800;SDS011;43627;42.728;23.256;2022-08-25T00:24:20;27.38;;;10.88;;
57800;SDS011;43627;42.728;23.256;2022-08-25T00:26:48;22.45;;;11.02;;
57800;SDS011;43627;42.728;23.256;2022-08-25T00:29:17;26.02;;;9.70;;
57800;SDS011;43627;42.728;23.256;2022-08-25T00:31:44;27.52;;;10.50;;
57800;SDS011;43627;42.728;23.256;2022-08-25T00:34:13;36.67;;;9.57;;
57800;SDS011;43627;42.728;23.256;2022-08-25T00:36:43;28.90;;;10.65;;
57800;SDS011;43627;42.728;23.256;2022-08-25T00:39:10;29.35;;;9.85;;
57800;SDS011;43627;42.728;23.256;2022-08-25T00:41:38;23.52;;;11.02;;
57800;SDS011;43627;42.728;23.256;2022-08-25T00:44:07;29.67;;;10.18;;
57800;SDS011;43627;42.728;23.256;2022-08-25T00:46:44;23.80;;;9.10;;
57800;SDS011;43627;42.728;23.256;2022-08-25T00:51:51;27.48;;;10.32;;
57800;SDS011;43627;42.728;23.256;2022-08-25T00:54:30;37.13;;;10.45;;
57800;SDS011;43627;42.728;23.256;2022-08-25T00:57:00;35.50;;;10.43;;
57800;SDS011;43627;42.728;23.256;2022-08-25T00:59:30;29.63;;;10.02;;
57800;SDS011;43627;42.728;23.256;2022-08-25T01:01:57;31.65;;;10.13;;
57800;SDS011;43627;42.728;23.256;2022-08-25T01:04:25;20.00;;;9.73;;
57800;SDS011;43627;42.728;23.256;2022-08-25T01:06:52;30.45;;;9.93;;
57800;SDS011;43627;42.728;23.256;2022-08-25T01:09:20;34.63;;;10.75;;
57800;SDS011;43627;42.728;23.256;2022-08-25T01:11:47;29.55;;;10.48;;
57800;SDS011;43627;42.728;23.256;2022-08-25T01:14:15;28.35;;;11.57;;
57800;SDS011;43627;42.728;23.256;2022-08-25T01:16:44;32.15;;;11.70;;
57800;SDS011;43627;42.728;23.256;2022-08-25T01:19:16;26.73;;;9.43;;
57800;SDS011;43627;42.728;23.256;2022-08-25T01:21:45;21.85;;;9.20;;
57800;SDS011;43627;42.728;23.256;2022-08-25T01:27:06;28.52;;;9.05;;
57800;SDS011;43627;42.728;23.256;2022-08-25T01:29:33;31.25;;;9.00;;
57800;SDS011;43627;42.728;23.256;2022-08-25T01:32:02;33.50;;;9.85;;
57800;SDS011;43627;42.728;23.256;2022-08-25T01:34:33;27.15;;;9.20;;
57800;SDS011;43627;42.728;23.256;2022-08-25T01:37:02;30.23;;;8.52;;
57800;SDS011;43627;42.728;23.256;2022-08-25T01:39:30;39.42;;;10.85;;
57800;SDS011;43627;42.728;23.256;2022-08-25T01:42:07;33.05;;;10.57;;
57800;SDS011;43627;42.728;23.256;2022-08-25T01:44:36;26.48;;;9.88;;
57800;SDS011;43627;42.728;23.256;2022-08-25T01:47:04;28.98;;;10.30;;
57800;SDS011;43627;42.728;23.256;2022-08-25T01:49:32;28.65;;;10.48;;
57800;SDS011;43627;42.728;23.256;2022-08-25T01:52:00;32.30;;;9.23;;
57800;SDS011;43627;42.728;23.256;2022-08-25T01:54:36;29.85;;;10.63;;
57800;SDS011;43627;42.728;23.256;2022-08-25T01:57:03;23.38;;;8.77;;
57800;SDS011;43627;42.728;23.256;2022-08-25T01:59:30;22.33;;;9.38;;
57800;SDS011;43627;42.728;23.256;2022-08-25T02:01:56;27.52;;;8.93;;
57800;SDS011;43627;42.728;23.256;2022-08-25T02:04:26;30.23;;;9.43;;
57800;SDS011;43627;42.728;23.256;2022-08-25T02:09:27;24.17;;;8.98;;
57800;SDS011;43627;42.728;23.256;2022-08-25T02:11:54;20.55;;;9.07;;
57800;SDS011;43627;42.728;23.256;2022-08-25T02:14:22;26.65;;;9.68;;
57800;SDS011;43627;42.728;23.256;2022-08-25T02:16:50;24.33;;;8.32;;
57800;SDS011;43627;42.728;23.256;2022-08-25T02:19:19;30.40;;;8.93;;
57800;SDS011;43627;42.728;23.256;2022-08-25T02:21:47;27.92;;;9.32;;
57800;SDS011;43627;42.728;23.256;2022-08-25T02:24:14;24.92;;;8.70;;
57800;SDS011;43627;42.728;23.256;2022-08-25T02:26:41;25.38;;;9.60;;
57800;SDS011;43627;42.728;23.256;2022-08-25T02:29:08;29.77;;;9.15;;
57800;SDS011;43627;42.728;23.256;2022-08-25T02:31:35;27.95;;;8.23;;
57800;SDS011;43627;42.728;23.256;2022-08-25T02:34:02;32.28;;;8.68;;
57800;SDS011;43627;42.728;23.256;2022-08-25T02:36:30;25.95;;;9.05;;
57800;SDS011;43627;42.728;23.256;2022-08-25T02:38:57;33.03;;;10.07;;
57800;SDS011;43627;42.728;23.256;2022-08-25T02:41:25;24.73;;;9.35;;
57800;SDS011;43627;42.728;23.256;2022-08-25T02:43:57;22.23;;;8.75;;
57800;SDS011;43627;42.728;23.256;2022-08-25T02:46:25;24.33;;;9.30;;
57800;SDS011;43627;42.728;23.256;2022-08-25T02:48:52;33.00;;;11.13;;
57800;SDS011;43627;42.728;23.256;2022-08-25T02:51:19;25.90;;;9.68;;
57800;SDS011;43627;42.728;23.256;2022-08-25T02:53:47;27.02;;;9.98;;
57800;SDS011;43627;42.728;23.256;2022-08-25T02:56:15;20.10;;;10.13;;
57800;SDS011;43627;42.728;23.256;2022-08-25T02:58:43;23.52;;;10.50;;
57800;SDS011;43627;42.728;23.256;2022-08-25T03:01:11;29.75;;;11.45;;
57800;SDS011;43627;42.728;23.256;2022-08-25T03:03:39;31.83;;;10.50;;
57800;SDS011;43627;42.728;23.256;2022-08-25T03:06:10;30.08;;;11.40;;
57800;SDS011;43627;42.728;23.256;2022-08-25T03:08:38;26.98;;;10.48;;
57800;SDS011;43627;42.728;23.256;2022-08-25T03:11:07;30.55;;;12.02;;
57800;SDS011;43627;42.728;23.256;2022-08-25T03:13:33;28.40;;;12.40;;
57800;SDS011;43627;42.728;23.256;2022-08-25T03:16:01;38.47;;;14.15;;
57800;SDS011;43627;42.728;23.256;2022-08-25T03:18:28;32.08;;;13.10;;
57800;SDS011;43627;42.728;23.256;2022-08-25T03:20:56;22.02;;;11.43;;
57800;SDS011;43627;42.728;23.256;2022-08-25T03:23:22;25.95;;;10.65;;
57800;SDS011;43627;42.728;23.256;2022-08-25T03:25:49;28.95;;;11.13;;
57800;SDS011;43627;42.728;23.256;2022-08-25T03:28:35;35.38;;;10.52;;
57800;SDS011;43627;42.728;23.256;2022-08-25T03:31:02;17.38;;;10.38;;
57800;SDS011;43627;42.728;23.256;2022-08-25T03:33:29;23.55;;;9.98;;
57800;SDS011;43627;42.728;23.256;2022-08-25T03:35:56;26.23;;;9.70;;
57800;SDS011;43627;42.728;23.256;2022-08-25T03:38:24;27.00;;;9.68;;
57800;SDS011;43627;42.728;23.256;2022-08-25T03:40:52;24.90;;;10.07;;
57800;SDS011;43627;42.728;23.256;2022-08-25T03:43:19;27.85;;;9.68;;
57800;SDS011;43627;42.728;23.256;2022-08-25T03:45:46;25.90;;;10.60;;
57800;SDS011;43627;42.728;23.256;2022-08-25T03:48:14;23.48;;;9.35;;
57800;SDS011;43627;42.728;23.256;2022-08-25T03:50:48;22.10;;;9.50;;
57800;SDS011;43627;42.728;23.256;2022-08-25T03:53:17;22.20;;;10.00;;
57800;SDS011;43627;42.728;23.256;2022-08-25T03:55:45;26.77;;;9.63;;
57800;SDS011;43627;42.728;23.256;2022-08-25T03:58:12;26.48;;;11.30;;
57800;SDS011;43627;42.728;23.256;2022-08-25T04:00:39;21.90;;;10.30;;
57800;SDS011;43627;42.728;23.256;2022-08-25T04:03:06;27.58;;;10.80;;
57800;SDS011;43627;42.728;23.256;2022-08-25T04:05:32;19.65;;;9.68;;
57800;SDS011;43627;42.728;23.256;2022-08-25T04:08:00;24.17;;;9.85;;
57800;SDS011;43627;42.728;23.256;2022-08-25T04:10:27;29.75;;;10.07;;
57800;SDS011;43627;42.728;23.256;2022-08-25T04:12:55;28.63;;;10.02;;
57800;SDS011;43627;42.728;23.256;2022-08-25T04:15:22;27.08;;;9.75;;
57800;SDS011;43627;42.728;23.256;2022-08-25T04:17:55;27.30;;;10.50;;
57800;SDS011;43627;42.728;23.256;2022-08-25T04:20:24;26.05;;;9.85;;
57800;SDS011;43627;42.728;23.256;2022-08-25T04:22:51;26.02;;;10.48;;
57800;SDS011;43627;42.728;23.256;2022-08-25T04:25:18;25.30;;;10.15;;
57800;SDS011;43627;42.728;23.256;2022-08-25T04:27:45;27.60;;;9.68;;
57800;SDS011;43627;42.728;23.256;2022-08-25T04:30:12;18.85;;;9.15;;
57800;SDS011;43627;42.728;23.256;2022-08-25T04:32:39;32.88;;;9.50;;
57800;SDS011;43627;42.728;23.256;2022-08-25T04:35:06;21.52;;;9.80;;
57800;SDS011;43627;42.728;23.256;2022-08-25T04:37:33;25.45;;;10.00;;
57800;SDS011;43627;42.728;23.256;2022-08-25T04:40:00;28.42;;;10.15;;
57800;SDS011;43627;42.728;23.256;2022-08-25T04:42:27;25.55;;;10.13;;
57800;SDS011;43627;42.728;23.256;2022-08-25T04:44:54;34.58;;;10.00;;
57800;SDS011;43627;42.728;23.256;2022-08-25T04:47:21;36.10;;;9.75;;
57800;SDS011;43627;42.728;23.256;2022-08-25T04:49:48;23.92;;;8.95;;
57800;SDS011;43627;42.728;23.256;2022-08-25T04:52:15;26.00;;;10.73;;
57800;SDS011;43627;42.728;23.256;2022-08-25T04:54:41;21.60;;;9.13;;
57800;SDS011;43627;42.728;23.256;2022-08-25T04:57:09;21.88;;;10.25;;
57800;SDS011;43627;42.728;23.256;2022-08-25T04:59:36;23.35;;;8.90;;
57800;SDS011;43627;42.728;23.256;2022-08-25T05:02:03;33.65;;;9.85;;
57800;SDS011;43627;42.728;23.256;2022-08-25T05:04:31;20.02;;;8.63;;
57800;SDS011;43627;42.728;23.256;2022-08-25T05:07:00;24.60;;;8.85;;
57800;SDS011;43627;42.728;23.256;2022-08-25T05:09:27;34.00;;;9.45;;
57800;SDS011;43627;42.728;23.256;2022-08-25T05:11:58;25.75;;;9.80;;
57800;SDS011;43627;42.728;23.256;2022-08-25T05:14:25;23.92;;;9.90;;
57800;SDS011;43627;42.728;23.256;2022-08-25T05:16:52;30.25;;;10.13;;
57800;SDS011;43627;42.728;23.256;2022-08-25T05:19:20;23.67;;;9.02;;
57800;SDS011;43627;42.728;23.256;2022-08-25T05:21:49;21.90;;;9.00;;
57800;SDS011;43627;42.728;23.256;2022-08-25T05:24:16;17.48;;;9.07;;
57800;SDS011;43627;42.728;23.256;2022-08-25T05:26:44;22.40;;;9.77;;
57800;SDS011;43627;42.728;23.256;2022-08-25T05:29:11;24.83;;;8.52;;
57800;SDS011;43627;42.728;23.256;2022-08-25T05:31:37;20.45;;;9.75;;
57800;SDS011;43627;42.728;23.256;2022-08-25T05:34:10;20.17;;;10.40;;
57800;SDS011;43627;42.728;23.256;2022-08-25T05:36:37;23.08;;;9.55;;
57800;SDS011;43627;42.728;23.256;2022-08-25T05:39:08;21.30;;;10.07;;
57800;SDS011;43627;42.728;23.256;2022-08-25T05:41:35;19.33;;;10.40;;
57800;SDS011;43627;42.728;23.256;2022-08-25T05:44:03;19.00;;;9.10;;
57800;SDS011;43627;42.728;23.256;2022-08-25T05:46:30;31.88;;;10.82;;
57800;SDS011;43627;42.728;23.256;2022-08-25T05:48:57;25.88;;;9.52;;
57800;SDS011;43627;42.728;23.256;2022-08-25T05:51:24;26.50;;;9.25;;
57800;SDS011;43627;42.728;23.256;2022-08-25T05:53:51;30.33;;;9.95;;
57800;SDS011;43627;42.728;23.256;2022-08-25T05:56:19;25.27;;;10.57;;
57800;SDS011;43627;42.728;23.256;2022-08-25T05:58:46;27.92;;;10.82;;
57800;SDS011;43627;42.728;23.256;2022-08-25T06:01:19;26.42;;;9.93;;
57800;SDS011;43627;42.728;23.256;2022-08-25T06:04:10;23.15;;;9.80;;
57800;SDS011;43627;42.728;23.256;2022-08-25T06:06:37;17.73;;;9.50;;
57800;SDS011;43627;42.728;23.256;2022-08-25T06:09:04;22.27;;;9.77;;
57800;SDS011;43627;42.728;23.256;2022-08-25T06:11:34;22.25;;;9.50;;
57800;SDS011;43627;42.728;23.256;2022-08-25T06:14:01;23.60;;;10.43;;
57800;SDS011;43627;42.728;23.256;2022-08-25T06:16:28;18.40;;;9.65;;
57800;SDS011;43627;42.728;23.256;2022-08-25T06:18:55;23.92;;;8.23;;
57800;SDS011;43627;42.728;23.256;2022-08-25T06:21:21;25.17;;;9.35;;
57800;SDS011;43627;42.728;23.256;2022-08-25T06:23:48;20.05;;;8.93;;
57800;SDS011;43627;42.728;23.256;2022-08-25T06:26:17;32.45;;;11.43;;
57800;SDS011;43627;42.728;23.256;2022-08-25T06:28:47;24.92;;;10.25;;
57800;SDS011;43627;42.728;23.256;2022-08-25T06:31:14;26.15;;;9.48;;
57800;SDS011;43627;42.728;23.256;2022-08-25T06:33:42;24.30;;;8.85;;
57800;SDS011;43627;42.728;23.256;2022-08-25T06:36:10;32.55;;;10.25;;
57800;SDS011;43627;42.728;23.256;2022-08-25T06:38:36;25.77;;;8.00;;
57800;SDS011;43627;42.728;23.256;2022-08-25T06:41:04;24.63;;;8.10;;
57800;SDS011;43627;42.728;23.256;2022-08-25T06:43:32;22.60;;;7.50;;
57800;SDS011;43627;42.728;23.256;2022-08-25T06:46:12;23.33;;;7.28;;
57800;SDS011;43627;42.728;23.256;2022-08-25T06:48:44;20.33;;;7.47;;
57800;SDS011;43627;42.728;23.256;2022-08-25T06:51:13;20.27;;;7.72;;
57800;SDS011;43627;42.728;23.256;2022-08-25T06:53:42;22.00;;;7.65;;
57800;SDS011;43627;42.728;23.256;2022-08-25T06:56:10;16.98;;;7.05;;
57800;SDS011;43627;42.728;23.256;2022-08-25T06:58:37;27.48;;;7.88;;
57800;SDS011;43627;42.728;23.256;2022-08-25T07:01:08;18.02;;;7.10;;
57800;SDS011;43627;42.728;23.256;2022-08-25T07:03:45;17.30;;;6.82;;
57800;SDS011;43627;42.728;23.256;2022-08-25T07:06:13;26.95;;;8.75;;
57800;SDS011;43627;42.728;23.256;2022-08-25T07:08:44;21.80;;;7.72;;
57800;SDS011;43627;42.728;23.256;2022-08-25T07:11:14;20.48;;;7.85;;
57800;SDS011;43627;42.728;23.256;2022-08-25T07:13:43;24.80;;;7.43;;
57800;SDS011;43627;42.728;23.256;2022-08-25T07:16:10;14.70;;;7.70;;
57800;SDS011;43627;42.728;23.256;2022-08-25T07:18:37;22.40;;;7.53;;
57800;SDS011;43627;42.728;23.256;2022-08-25T07:21:04;16.73;;;7.32;;
57800;SDS011;43627;42.728;23.256;2022-08-25T07:23:34;20.10;;;8.63;;
57800;SDS011;43627;42.728;23.256;2022-08-25T07:26:08;26.17;;;7.15;;
57800;SDS011;43627;42.728;23.256;2022-08-25T07:29:01;21.45;;;7.28;;
57800;SDS011;43627;42.728;23.256;2022-08-25T07:31:30;24.60;;;7.75;;
57800;SDS011;43627;42.728;23.256;2022-08-25T07:33:58;20.17;;;7.95;;
57800;SDS011;43627;42.728;23.256;2022-08-25T07:36:43;23.17;;;8.00;;
57800;SDS011;43627;42.728;23.256;2022-08-25T07:39:10;19.00;;;7.28;;
57800;SDS011;43627;42.728;23.256;2022-08-25T07:41:38;21.77;;;8.10;;
57800;SDS011;43627;42.728;23.256;2022-08-25T07:44:07;20.00;;;8.38;;
57800;SDS011;43627;42.728;23.256;2022-08-25T07:46:36;21.35;;;8.63;;
57800;SDS011;43627;42.728;23.256;2022-08-25T07:49:04;21.77;;;7.57;;
57800;SDS011;43627;42.728;23.256;2022-08-25T07:51:42;20.70;;;7.35;;
57800;SDS011;43627;42.728;23.256;2022-08-25T07:54:30;24.10;;;7.70;;
57800;SDS011;43627;42.728;23.256;2022-08-25T07:57:00;27.00;;;8.45;;
57800;SDS011;43627;42.728;23.256;2022-08-25T07:59:28;16.58;;;7.85;;
57800;SDS011;43627;42.728;23.256;2022-08-25T08:01:55;22.88;;;7.85;;
57800;SDS011;43627;42.728;23.256;2022-08-25T08:04:22;19.50;;;7.97;;
57800;SDS011;43627;42.728;23.256;2022-08-25T08:06:49;14.05;;;6.78;;
57800;SDS011;43627;42.728;23.256;2022-08-25T08:09:16;15.10;;;7.38;;
57800;SDS011;43627;42.728;23.256;2022-08-25T08:11:42;23.10;;;7.35;;
57800;SDS011;43627;42.728;23.256;2022-08-25T08:14:19;19.70;;;7.50;;
57800;SDS011;43627;42.728;23.256;2022-08-25T08:16:46;24.98;;;6.90;;
57800;SDS011;43627;42.728;23.256;2022-08-25T08:19:13;21.60;;;7.15;;
57800;SDS011;43627;42.728;23.256;2022-08-25T08:21:40;21.45;;;8.25;;
57800;SDS011;43627;42.728;23.256;2022-08-25T08:24:07;20.75;;;7.22;;
57800;SDS011;43627;42.728;23.256;2022-08-25T08:26:54;22.60;;;7.38;;
57800;SDS011;43627;42.728;23.256;2022-08-25T08:29:24;32.78;;;7.18;;
57800;SDS011;43627;42.728;23.256;2022-08-25T08:31:52;31.75;;;8.25;;
57800;SDS011;43627;42.728;23.256;2022-08-25T08:34:18;24.42;;;8.23;;
57800;SDS011;43627;42.728;23.256;2022-08-25T08:39:17;25.58;;;7.82;;
57800;SDS011;43627;42.728;23.256;2022-08-25T08:47:11;31.65;;;7.00;;
57800;SDS011;43627;42.728;23.256;2022-08-25T08:50:04;28.40;;;6.63;;
57800;SDS011;43627;42.728;23.256;2022-08-25T08:53:04;34.33;;;7.55;;
57800;SDS011;43627;42.728;23.256;2022-08-25T08:58:08;27.98;;;7.25;;
57800;SDS011;43627;42.728;23.256;2022-08-25T09:00:45;27.77;;;5.70;;
57800;SDS011;43627;42.728;23.256;2022-08-25T09:03:25;27.98;;;5.65;;
57800;SDS011;43627;42.728;23.256;2022-08-25T09:06:09;24.33;;;6.65;;
57800;SDS011;43627;42.728;23.256;2022-08-25T09:08:39;25.75;;;7.07;;
57800;SDS011;43627;42.728;23.256;2022-08-25T09:17:08;31.90;;;6.85;;
57800;SDS011;43627;42.728;23.256;2022-08-25T09:30:58;21.88;;;5.38;;
57800;SDS011;43627;42.728;23.256;2022-08-25T09:33:32;24.25;;;4.82;;
57800;SDS011;43627;42.728;23.256;2022-08-25T09:36:01;31.57;;;5.33;;
57800;SDS011;43627;42.728;23.256;2022-08-25T09:38:31;30.13;;;4.95;;
57800;SDS011;43627;42.728;23.256;2022-08-25T09:40:59;23.75;;;5.25;;
57800;SDS011;43627;42.728;23.256;2022-08-25T09:43:36;25.35;;;4.93;;
57800;SDS011;43627;42.728;23.256;2022-08-25T09:48:46;21.58;;;5.32;;
57800;SDS011;43627;42.728;23.256;2022-08-25T09:53:59;23.50;;;5.57;;
57800;SDS011;43627;42.728;23.256;2022-08-25T09:56:56;22.00;;;5.50;;
57800;SDS011;43627;42.728;23.256;2022-08-25T09:59:28;28.70;;;5.35;;
57800;SDS011;43627;42.728;23.256;2022-08-25T10:02:04;28.15;;;6.15;;
57800;SDS011;43627;42.728;23.256;2022-08-25T10:04:51;34.30;;;5.50;;
57800;SDS011;43627;42.728;23.256;2022-08-25T10:07:28;24.20;;;5.45;;
57800;SDS011;43627;42.728;23.256;2022-08-25T10:10:02;21.95;;;4.57;;
57800;SDS011;43627;42.728;23.256;2022-08-25T10:12:41;25.77;;;4.95;;
57800;SDS011;43627;42.728;23.256;2022-08-25T10:15:21;36.88;;;5.53;;
57800;SDS011;43627;42.728;23.256;2022-08-25T10:17:55;22.88;;;5.60;;
57800;SDS011;43627;42.728;23.256;2022-08-25T10:20:42;37.33;;;5.30;;
57800;SDS011;43627;42.728;23.256;2022-08-25T10:23:11;41.60;;;6.00;;
57800;SDS011;43627;42.728;23.256;2022-08-25T10:25:44;30.17;;;5.70;;
57800;SDS011;43627;42.728;23.256;2022-08-25T10:36:36;25.08;;;3.97;;
57800;SDS011;43627;42.728;23.256;2022-08-25T10:39:16;23.58;;;4.57;;
57800;SDS011;43627;42.728;23.256;2022-08-25T10:42:05;26.30;;;4.40;;
57800;SDS011;43627;42.728;23.256;2022-08-25T11:04:10;26.85;;;3.90;;
57800;SDS011;43627;42.728;23.256;2022-08-25T11:06:55;32.63;;;4.45;;
57800;SDS011;43627;42.728;23.256;2022-08-25T11:09:32;28.58;;;3.85;;
57800;SDS011;43627;42.728;23.256;2022-08-25T11:12:17;21.02;;;4.50;;
57800;SDS011;43627;42.728;23.256;2022-08-25T11:14:59;21.50;;;3.92;;
57800;SDS011;43627;42.728;23.256;2022-08-25T11:20:20;19.65;;;3.63;;
57800;SDS011;43627;42.728;23.256;2022-08-25T11:25:41;20.00;;;3.70;;
57800;SDS011;43627;42.728;23.256;2022-08-25T11:30:52;21.40;;;3.67;;
57800;SDS011;43627;42.728;23.256;2022-08-25T11:33:23;29.10;;;4.13;;
57800;SDS011;43627;42.728;23.256;2022-08-25T11:35:56;31.02;;;3.88;;
57800;SDS011;43627;42.728;23.256;2022-08-25T11:41:16;28.17;;;4.43;;
57800;SDS011;43627;42.728;23.256;2022-08-25T11:43:55;16.17;;;3.55;;
57800;SDS011;43627;42.728;23.256;2022-08-25T11:51:51;16.95;;;4.35;;
57800;SDS011;43627;42.728;23.256;2022-08-25T11:57:02;23.65;;;3.55;;
57800;SDS011;43627;42.728;23.256;2022-08-25T12:02:27;22.95;;;3.95;;
57800;SDS011;43627;42.728;23.256;2022-08-25T12:05:09;21.00;;;3.22;;
57800;SDS011;43627;42.728;23.256;2022-08-25T12:08:00;20.92;;;3.80;;
57800;SDS011;43627;42.728;23.256;2022-08-25T12:11:01;23.05;;;3.38;;
57800;SDS011;43627;42.728;23.256;2022-08-25T12:13:45;10.70;;;3.22;;
57800;SDS011;43627;42.728;23.256;2022-08-25T12:21:48;21.15;;;4.18;;
57800;SDS011;43627;42.728;23.256;2022-08-25T12:24:17;21.60;;;3.42;;
57800;SDS011;43627;42.728;23.256;2022-08-25T12:29:25;10.32;;;3.05;;
57800;SDS011;43627;42.728;23.256;2022-08-25T12:32:16;19.52;;;3.33;;
57800;SDS011;43627;42.728;23.256;2022-08-25T12:37:52;11.25;;;2.92;;
57800;SDS011;43627;42.728;23.256;2022-08-25T12:40:38;17.90;;;3.80;;
57800;SDS011;43627;42.728;23.256;2022-08-25T12:43:24;20.77;;;3.80;;
57800;SDS011;43627;42.728;23.256;2022-08-25T12:54:00;23.08;;;3.42;;
57800;SDS011;43627;42.728;23.256;2022-08-25T12:56:55;22.35;;;3.10;;
57800;SDS011;43627;42.728;23.256;2022-08-25T13:07:53;20.15;;;3.10;;
57800;SDS011;43627;42.728;23.256;2022-08-25T13:15:13;20.50;;;3.63;;
57800;SDS011;43627;42.728;23.256;2022-08-25T13:17:50;21.30;;;3.22;;
57800;SDS011;43627;42.728;23.256;2022-08-25T13:20:25;27.45;;;4.07;;
57800;SDS011;43627;42.728;23.256;2022-08-25T13:22:56;24.25;;;3.83;;
57800;SDS011;43627;42.728;23.256;2022-08-25T13:25:27;18.75;;;3.38;;
57800;SDS011;43627;42.728;23.256;2022-08-25T13:27:58;19.20;;;4.32;;
57800;SDS011;43627;42.728;23.256;2022-08-25T13:30:37;20.03;;;4.13;;
57800;SDS011;43627;42.728;23.256;2022-08-25T13:33:14;12.77;;;2.95;;
57800;SDS011;43627;42.728;23.256;2022-08-25T13:35:50;27.00;;;4.03;;
57800;SDS011;43627;42.728;23.256;2022-08-25T13:38:37;27.75;;;4.07;;
57800;SDS011;43627;42.728;23.256;2022-08-25T13:41:05;22.75;;;3.42;;
57800;SDS011;43627;42.728;23.256;2022-08-25T13:43:35;22.77;;;4.40;;
57800;SDS011;43627;42.728;23.256;2022-08-25T13:46:04;21.83;;;3.95;;
57800;SDS011;43627;42.728;23.256;2022-08-25T13:53:47;21.10;;;3.45;;
57800;SDS011;43627;42.728;23.256;2022-08-25T13:56:29;12.50;;;3.05;;
57800;SDS011;43627;42.728;23.256;2022-08-25T13:59:17;17.30;;;3.05;;
57800;SDS011;43627;42.728;23.256;2022-08-25T14:01:52;30.00;;;4.55;;
57800;SDS011;43627;42.728;23.256;2022-08-25T14:09:50;17.58;;;3.22;;
57800;SDS011;43627;42.728;23.256;2022-08-25T14:17:44;21.17;;;4.20;;
57800;SDS011;43627;42.728;23.256;2022-08-25T14:20:18;31.83;;;3.97;;
57800;SDS011;43627;42.728;23.256;2022-08-25T14:22:52;24.10;;;3.30;;
57800;SDS011;43627;42.728;23.256;2022-08-25T14:25:23;32.22;;;4.43;;
57800;SDS011;43627;42.728;23.256;2022-08-25T14:27:55;24.60;;;3.33;;
57800;SDS011;43627;42.728;23.256;2022-08-25T14:30:40;22.85;;;3.55;;
57800;SDS011;43627;42.728;23.256;2022-08-25T14:33:11;22.65;;;3.95;;
57800;SDS011;43627;42.728;23.256;2022-08-25T14:35:40;17.52;;;3.83;;
57800;SDS011;43627;42.728;23.256;2022-08-25T14:38:12;19.35;;;3.20;;
57800;SDS011;43627;42.728;23.256;2022-08-25T14:40:40;23.65;;;3.22;;
57800;SDS011;43627;42.728;23.256;2022-08-25T14:43:07;25.38;;;4.38;;
57800;SDS011;43627;42.728;23.256;2022-08-25T14:45:35;25.38;;;3.63;;
57800;SDS011;43627;42.728;23.256;2022-08-25T14:48:09;14.63;;;2.55;;
57800;SDS011;43627;42.728;23.256;2022-08-25T14:51:02;23.85;;;3.97;;
57800;SDS011;43627;42.728;23.256;2022-08-25T14:53:29;21.13;;;3.88;;
57800;SDS011;43627;42.728;23.256;2022-08-25T14:55:57;36.97;;;4.50;;
57800;SDS011;43627;42.728;23.256;2022-08-25T14:58:25;25.42;;;4.30;;
57800;SDS011;43627;42.728;23.256;2022-08-25T15:00:59;26.60;;;4.03;;
57800;SDS011;43627;42.728;23.256;2022-08-25T15:03:35;27.95;;;4.25;;
57800;SDS011;43627;42.728;23.256;2022-08-25T15:06:04;20.77;;;3.15;;
57800;SDS011;43627;42.728;23.256;2022-08-25T15:08:31;16.85;;;3.20;;
57800;SDS011;43627;42.728;23.256;2022-08-25T15:11:16;14.00;;;3.75;;
57800;SDS011;43627;42.728;23.256;2022-08-25T15:13:43;31.58;;;4.28;;
57800;SDS011;43627;42.728;23.256;2022-08-25T15:16:17;18.50;;;3.47;;
57800;SDS011;43627;42.728;23.256;2022-08-25T15:18:59;32.38;;;3.60;;
57800;SDS011;43627;42.728;23.256;2022-08-25T15:21:31;22.55;;;4.07;;
57800;SDS011;43627;42.728;23.256;2022-08-25T15:23:58;28.48;;;4.07;;
57800;SDS011;43627;42.728;23.256;2022-08-25T15:26:25;17.58;;;3.67;;
57800;SDS011;43627;42.728;23.256;2022-08-25T15:28:52;22.00;;;3.95;;
57800;SDS011;43627;42.728;23.256;2022-08-25T15:31:19;12.93;;;3.33;;
57800;SDS011;43627;42.728;23.256;2022-08-25T15:33:46;30.25;;;4.68;;
57800;SDS011;43627;42.728;23.256;2022-08-25T15:36:17;30.77;;;4.63;;
57800;SDS011;43627;42.728;23.256;2022-08-25T15:38:49;25.13;;;4.05;;
57800;SDS011;43627;42.728;23.256;2022-08-25T15:41:16;23.42;;;4.50;;
57800;SDS011;43627;42.728;23.256;2022-08-25T15:43:43;17.83;;;3.70;;
57800;SDS011;43627;42.728;23.256;2022-08-25T15:46:10;26.48;;;4.43;;
57800;SDS011;43627;42.728;23.256;2022-08-25T15:48:39;24.58;;;4.45;;
57800;SDS011;43627;42.728;23.256;2022-08-25T15:51:06;16.73;;;3.08;;
57800;SDS011;43627;42.728;23.256;2022-08-25T15:53:34;22.88;;;4.20;;
57800;SDS011;43627;42.728;23.256;2022-08-25T15:56:03;29.20;;;4.05;;
57800;SDS011;43627;42.728;23.256;2022-08-25T15:58:32;30.02;;;4.00;;
57800;SDS011;43627;42.728;23.256;2022-08-25T16:01:00;24.10;;;4.25;;
57800;SDS011;43627;42.728;23.256;2022-08-25T16:03:28;26.15;;;3.80;;
57800;SDS011;43627;42.728;23.256;2022-08-25T16:05:56;24.00;;;3.78;;
57800;SDS011;43627;42.728;23.256;2022-08-25T16:08:23;15.85;;;3.58;;
57800;SDS011;43627;42.728;23.256;2022-08-25T16:10:50;27.55;;;4.40;;
57800;SDS011;43627;42.728;23.256;2022-08-25T16:13:17;35.25;;;4.43;;
57800;SDS011;43627;42.728;23.256;2022-08-25T16:15:47;20.10;;;3.65;;
57800;SDS011;43627;42.728;23.256;2022-08-25T16:18:20;22.08;;;3.80;;
57800;SDS011;43627;42.728;23.256;2022-08-25T16:20:48;33.75;;;4.93;;
57800;SDS011;43627;42.728;23.256;2022-08-25T16:23:15;17.42;;;3.78;;
57800;SDS011;43627;42.728;23.256;2022-08-25T16:25:44;25.27;;;4.15;;
57800;SDS011;43627;42.728;23.256;2022-08-25T16:28:13;21.48;;;4.00;;
57800;SDS011;43627;42.728;23.256;2022-08-25T16:30:45;28.30;;;4.45;;
57800;SDS011;43627;42.728;23.256;2022-08-25T16:33:18;14.60;;;4.28;;
57800;SDS011;43627;42.728;23.256;2022-08-25T16:35:46;26.73;;;4.53;;
57800;SDS011;43627;42.728;23.256;2022-08-25T16:38:14;23.10;;;4.05;;
57800;SDS011;43627;42.728;23.256;2022-08-25T16:40:41;18.00;;;3.88;;
57800;SDS011;43627;42.728;23.256;2022-08-25T16:43:08;31.13;;;3.95;;
57800;SDS011;43627;42.728;23.256;2022-08-25T16:45:35;34.17;;;4.43;;
57800;SDS011;43627;42.728;23.256;2022-08-25T16:48:03;23.40;;;5.18;;
57800;SDS011;43627;42.728;23.256;2022-08-25T16:50:31;29.55;;;4.47;;
57800;SDS011;43627;42.728;23.256;2022-08-25T16:53:00;24.70;;;3.72;;
57800;SDS011;43627;42.728;23.256;2022-08-25T16:55:49;25.98;;;4.95;;
57800;SDS011;43627;42.728;23.256;2022-08-25T16:58:25;32.70;;;4.35;;
57800;SDS011;43627;42.728;23.256;2022-08-25T17:00:55;19.33;;;4.90;;
57800;SDS011;43627;42.728;23.256;2022-08-25T17:03:31;29.60;;;4.00;;